Observation data for Haskell on 12/13/2019      Previous  Date       Current Mesonet Observations  Soil Data  Daily Summary Page  Observations in Plain Language
KHA1 130600Z 20006KT 05/04 A2994 RMK A01 T00530035  RH  090%=      5-min Rain = 0
KHA1 130605Z 20007KT 05/03 A2994 RMK A01 T00530034  RH  089%=      5-min Rain = 0
KHA1 130610Z 20007KT 05/03 A2994 RMK A01 T00490030  RH  089%=      5-min Rain = 0
KHA1 130615Z 20006KT 05/03 A2994 RMK A01 T00450027  RH  090%=      5-min Rain = 0
KHA1 130620Z 21006KT 05/03 A2994 RMK A01 T00460030  RH  091%=      5-min Rain = 0
KHA1 130625Z 20006KT 05/03 A2994 RMK A01 T00480032  RH  091%=      5-min Rain = 0
KHA1 130630Z 19006KT 05/04 A2994 RMK A01 T00520035  RH  090%=      5-min Rain = 0
KHA1 130635Z 20006KT 05/03 A2994 RMK A01 T00500030  RH  088%=      5-min Rain = 0
KHA1 130640Z 20006KT 04/02 A2994 RMK A01 T00390021  RH  089%=      5-min Rain = 0
KHA1 130645Z 21006KT 04/03 A2993 RMK A01 T00390025  RH  092%=      5-min Rain = 0
KHA1 130650Z 20007KT 05/03 A2993 RMK A01 T00460032  RH  092%=      5-min Rain = 0
KHA1 130655Z 21006KT 05/03 A2993 RMK A01 T00450028  RH  090%=      5-min Rain = 0
KHA1 130700Z 21007KT 04/03 A2993 RMK A01 T00410025  RH  091%=      5-min Rain = 0
KHA1 130705Z 21007KT 04/03 A2993 RMK A01 T00410025  RH  091%=      5-min Rain = 0
KHA1 130710Z 21007KT 04/03 A2993 RMK A01 T00400026  RH  092%=      5-min Rain = 0
KHA1 130715Z 21006KT 04/03 A2992 RMK A01 T00420027  RH  092%=      5-min Rain = 0
KHA1 130720Z 21006KT 04/03 A2992 RMK A01 T00410026  RH  092%=      5-min Rain = 0
KHA1 130725Z 22007KT 04/03 A2992 RMK A01 T00400025  RH  092%=      5-min Rain = 0
KHA1 130730Z 22007KT 04/03 A2992 RMK A01 T00410027  RH  092%=      5-min Rain = 0
KHA1 130735Z 22007KT 04/03 A2991 RMK A01 T00400025  RH  091%=      5-min Rain = 0
KHA1 130740Z 23006KT 04/02 A2991 RMK A01 T00380023  RH  092%=      5-min Rain = 0
KHA1 130745Z 23007KT 04/02 A2991 RMK A01 T00370023  RH  092%=      5-min Rain = 0
KHA1 130750Z 23008KT 04/03 A2991 RMK A01 T00410027  RH  092%=      5-min Rain = 0
KHA1 130755Z 24008KT 05/03 A2991 RMK A01 T00450029  RH  091%=      5-min Rain = 0
KHA1 130800Z 25007KT 05/03 A2991 RMK A01 T00460028  RH  089%=      5-min Rain = 0
KHA1 130805Z 26006KT 04/02 A2991 RMK A01 T00430023  RH  089%=      5-min Rain = 0
KHA1 130810Z 26006KT 04/02 A2991 RMK A01 T00420024  RH  089%=      5-min Rain = 0
KHA1 130815Z 27005KT 04/03 A2991 RMK A01 T00440025  RH  089%=      5-min Rain = 0
KHA1 130820Z 26006KT 04/02 A2991 RMK A01 T00440024  RH  088%=      5-min Rain = 0
KHA1 130825Z 28006KT 04/02 A2991 RMK A01 T00440023  RH  087%=      5-min Rain = 0
KHA1 130830Z 28006KT 05/02 A2991 RMK A01 T00470024  RH  086%=      5-min Rain = 0
KHA1 130835Z 27006KT 05/02 A2991 RMK A01 T00490024  RH  085%=      5-min Rain = 0
KHA1 130840Z 28006KT 05/02 A2991 RMK A01 T00490022  RH  084%=      5-min Rain = 0
KHA1 130845Z 28005KT 05/02 A2991 RMK A01 T00490023  RH  085%=      5-min Rain = 0
KHA1 130850Z 27005KT 05/02 A2991 RMK A01 T00480021  RH  084%=      5-min Rain = 0
KHA1 130855Z 28005KT 05/02 A299 RMK A01 T00500022  RH  084%=      5-min Rain = 0
KHA1 130900Z 28005KT 05/02 A299 RMK A01 T00520021  RH  082%=      5-min Rain = 0
KHA1 130905Z 28006KT 05/02 A299 RMK A01 T00520020  RH  081%=      5-min Rain = 0
KHA1 130910Z 27007KT 05/02 A299 RMK A01 T00510019  RH  081%=      5-min Rain = 0
KHA1 130915Z 28008KT 05/02 A299 RMK A01 T00480017  RH  082%=      5-min Rain = 0
KHA1 130920Z 28008KT 05/02 A2989 RMK A01 T00460018  RH  083%=      5-min Rain = 0
KHA1 130925Z 27007KT 05/02 A2989 RMK A01 T00450017  RH  083%=      5-min Rain = 0
KHA1 130930Z 27006KT 04/01 A2989 RMK A01 T00410014  RH  084%=      5-min Rain = 0
KHA1 130935Z 26007KT 04/01 A2989 RMK A01 T00370012  RH  085%=      5-min Rain = 0
KHA1 130940Z 28006KT 04/01 A299 RMK A01 T00380013  RH  085%=      5-min Rain = 0
KHA1 130945Z 30006KT 04/01 A299 RMK A01 T00360011  RH  085%=      5-min Rain = 0
KHA1 130950Z 29008KT 04/02 A299 RMK A01 T00380015  RH  086%=      5-min Rain = 0
KHA1 130955Z 29008KT 04/02 A299 RMK A01 T00380015  RH  086%=      5-min Rain = 0
KHA1 131000Z 28007KT 04/02 A299 RMK A01 T00390016  RH  086%=      5-min Rain = 0
KHA1 131005Z 27005KT 04/01 A2989 RMK A01 T00370013  RH  086%=      5-min Rain = 0
KHA1 131010Z 29005KT 03/01 A2989 RMK A01 T00330011  RH  087%=      5-min Rain = 0
KHA1 131015Z 29005KT 03/01 A2989 RMK A01 T00310010  RH  087%=      5-min Rain = 0
KHA1 131020Z 29006KT 03/01 A299 RMK A01 T00280009  RH  088%=      5-min Rain = 0
KHA1 131025Z 29005KT 03/01 A2989 RMK A01 T00290011  RH  089%=      5-min Rain = 0
KHA1 131030Z 29004KT 03/01 A2989 RMK A01 T00280011  RH  089%=      5-min Rain = 0
KHA1 131035Z 28004KT 03/01 A2988 RMK A01 T00250008  RH  090%=      5-min Rain = 0
KHA1 131040Z 28005KT 03/01 A2989 RMK A01 T00280012  RH  091%=      5-min Rain = 0
KHA1 131045Z 29005KT 03/01 A2989 RMK A01 T00250008  RH  090%=      5-min Rain = 0
KHA1 131050Z 30004KT 02/01 A2989 RMK A01 T00220006  RH  090%=      5-min Rain = 0
KHA1 131055Z 30003KT 02/01 A2989 RMK A01 T00200005  RH  091%=      5-min Rain = 0
KHA1 131100Z 29003KT 02/01 A2988 RMK A01 T00190005  RH  091%=      5-min Rain = 0
KHA1 131105Z 30004KT 02/01 A2989 RMK A01 T00200007  RH  092%=      5-min Rain = 0
KHA1 131110Z 31006KT 02/00 A2989 RMK A01 T00160002  RH  092%=      5-min Rain = 0
KHA1 131115Z 30007KT 01/00 A2989 RMK A01 T001300-0  RH  092%=      5-min Rain = 0
KHA1 131120Z 30006KT 01/00 A2988 RMK A01 T00140002  RH  093%=      5-min Rain = 0
KHA1 131125Z 30006KT 02/00 A2988 RMK A01 T00160004  RH  093%=      5-min Rain = 0
KHA1 131130Z 29006KT 02/01 A2989 RMK A01 T00170006  RH  093%=      5-min Rain = 0
KHA1 131135Z 28004KT 02/01 A2988 RMK A01 T00170005  RH  093%=      5-min Rain = 0
KHA1 131140Z 30005KT 02/00 A2988 RMK A01 T00150003  RH  093%=      5-min Rain = 0
KHA1 131145Z 31005KT 02/01 A2988 RMK A01 T00170005  RH  093%=      5-min Rain = 0
KHA1 131150Z 32005KT 02/01 A2987 RMK A01 T00180006  RH  093%=      5-min Rain = 0
KHA1 131155Z 32006KT 02/01 A2987 RMK A01 T00190006  RH  093%=      5-min Rain = 0
KHA1 131200Z 32007KT 02/01 A2988 RMK A01 T00180005  RH  092%=      5-min Rain = 0
KHA1 131205Z 31007KT 02/01 A2988 RMK A01 T00190007  RH  092%=      5-min Rain = 0
KHA1 131210Z 31007KT 02/01 A2988 RMK A01 T00210007  RH  092%=      5-min Rain = 0
KHA1 131215Z 30005KT 02/01 A2988 RMK A01 T00190005  RH  091%=      5-min Rain = 0
KHA1 131220Z 28004KT 02/00 A2988 RMK A01 T00180003  RH  091%=      5-min Rain = 0
KHA1 131225Z 30004KT 02/00 A2989 RMK A01 T00180004  RH  092%=      5-min Rain = 0
KHA1 131230Z 31006KT 02/00 A2989 RMK A01 T00170004  RH  092%=      5-min Rain = 0
KHA1 131235Z 31006KT 02/00 A2989 RMK A01 T00170004  RH  092%=      5-min Rain = 0
KHA1 131240Z 31007KT 02/01 A2989 RMK A01 T00180005  RH  092%=      5-min Rain = 0
KHA1 131245Z 31008KT 02/01 A2989 RMK A01 T00200007  RH  092%=      5-min Rain = 0
KHA1 131250Z 31008KT 02/01 A2989 RMK A01 T00230009  RH  092%=      5-min Rain = 0
KHA1 131255Z 31008KT 02/01 A299 RMK A01 T00240008  RH  091%=      5-min Rain = 0
KHA1 131300Z 31008KT 02/01 A299 RMK A01 T00230007  RH  090%=      5-min Rain = 0
KHA1 131305Z 31009KT 02/01 A2991 RMK A01 T00240008  RH  091%=      5-min Rain = 0
KHA1 131310Z 31009KT 03/01 A299 RMK A01 T00250009  RH  090%=      5-min Rain = 0
KHA1 131315Z 31008KT 03/01 A299 RMK A01 T00250009  RH  090%=      5-min Rain = 0
KHA1 131320Z 32008KT 03/01 A299 RMK A01 T00260010  RH  090%=      5-min Rain = 0
KHA1 131325Z 32008KT 03/01 A2991 RMK A01 T00260010  RH  090%=      5-min Rain = 0
KHA1 131330Z 32008KT 03/01 A2991 RMK A01 T00280012  RH  090%=      5-min Rain = 0
KHA1 131335Z 32008KT 03/01 A2991 RMK A01 T00290012  RH  090%=      5-min Rain = 0
KHA1 131340Z 32008KT 03/01 A2991 RMK A01 T00290012  RH  090%=      5-min Rain = 0
KHA1 131345Z 32009KT 03/01 A2991 RMK A01 T00290012  RH  090%=      5-min Rain = 0
KHA1 131350Z 32008KT 03/01 A2991 RMK A01 T00290012  RH  090%=      5-min Rain = 0
KHA1 131355Z 32008KT 03/01 A2991 RMK A01 T00290012  RH  090%=      5-min Rain = 0
KHA1 131400Z 32007KT 03/01 A2991 RMK A01 T00290012  RH  090%=      5-min Rain = 0
KHA1 131405Z 31007KT 03/01 A2991 RMK A01 T00290012  RH  090%=      5-min Rain = 0
KHA1 131410Z 31007KT 03/01 A2991 RMK A01 T00290012  RH  090%=      5-min Rain = 0
KHA1 131415Z 31006KT 03/01 A2991 RMK A01 T00290012  RH  090%=      5-min Rain = 0
KHA1 131420Z 32005KT 03/01 A2991 RMK A01 T00300014  RH  091%=      5-min Rain = 0
KHA1 131425Z 33004KT 03/02 A2991 RMK A01 T00340018  RH  090%=      5-min Rain = 0
KHA1 131430Z 34004KT 04/02 A2991 RMK A01 T00370018  RH  089%=      5-min Rain = 0
KHA1 131435Z 33004KT 04/02 A2992 RMK A01 T00400019  RH  088%=      5-min Rain = 0
KHA1 131440Z 30004KT 04/02 A2992 RMK A01 T00430022  RH  087%=      5-min Rain = 0
KHA1 131445Z 30004KT 05/02 A2992 RMK A01 T00460023  RH  086%=      5-min Rain = 0
KHA1 131450Z 30005KT 05/02 A2992 RMK A01 T00470023  RH  086%=      5-min Rain = 0
KHA1 131455Z 29005KT 05/02 A2992 RMK A01 T00490024  RH  085%=      5-min Rain = 0
KHA1 131500Z 29006KT 05/02 A2992 RMK A01 T00500024  RH  085%=      5-min Rain = 0
KHA1 131505Z 29006KT 05/03 A2992 RMK A01 T00520026  RH  085%=      5-min Rain = 0
KHA1 131510Z 30005KT 05/03 A2993 RMK A01 T00540027  RH  084%=      5-min Rain = 0
KHA1 131515Z 28005KT 06/03 A2993 RMK A01 T00570030  RH  084%=      5-min Rain = 0
KHA1 131520Z 28005KT 06/03 A2993 RMK A01 T00590031  RH  084%=      5-min Rain = 0
KHA1 131525Z 30005KT 06/03 A2994 RMK A01 T00620032  RH  083%=      5-min Rain = 0
KHA1 131530Z 30005KT 06/03 A2994 RMK A01 T00640033  RH  082%=      5-min Rain = 0
KHA1 131535Z 29006KT 07/03 A2995 RMK A01 T00660033  RH  081%=      5-min Rain = 0
KHA1 131540Z 29007KT 07/03 A2995 RMK A01 T00670032  RH  080%=      5-min Rain = 0
KHA1 131545Z 29007KT 07/03 A2995 RMK A01 T00690034  RH  080%=      5-min Rain = 0
KHA1 131550Z 29006KT 07/04 A2995 RMK A01 T00720035  RH  079%=      5-min Rain = 0
KHA1 131555Z 29006KT 07/04 A2995 RMK A01 T00740035  RH  078%=      5-min Rain = 0
KHA1 131600Z 30006KT 08/04 A2995 RMK A01 T00770037  RH  077%=      5-min Rain = 0
KHA1 131605Z 30006KT 08/04 A2994 RMK A01 T00800037  RH  076%=      5-min Rain = 0
KHA1 131610Z 30006KT 08/04 A2994 RMK A01 T00830038  RH  075%=      5-min Rain = 0
KHA1 131615Z 30006KT 09/04 A2995 RMK A01 T00860039  RH  074%=      5-min Rain = 0
KHA1 131620Z 30006KT 09/04 A2995 RMK A01 T00880039  RH  073%=      5-min Rain = 0
KHA1 131625Z 29005KT 09/04 A2994 RMK A01 T00900040  RH  072%=      5-min Rain = 0
KHA1 131630Z 30004KT 09/04 A2994 RMK A01 T00930041  RH  071%=      5-min Rain = 0
KHA1 131635Z 30004KT 09/04 A2994 RMK A01 T00930040  RH  071%=      5-min Rain = 0
KHA1 131640Z 30005KT 10/04 A2994 RMK A01 T00960042  RH  070%=      5-min Rain = 0
KHA1 131645Z 30004KT 10/04 A2994 RMK A01 T01000044  RH  069%=      5-min Rain = 0
KHA1 131650Z 32003KT 10/04 A2993 RMK A01 T01020043  RH  068%=      5-min Rain = 0
KHA1 131655Z 34002KT 11/05 A2992 RMK A01 T01060045  RH  067%=      5-min Rain = 0
KHA1 131700Z 33002KT 11/05 A2992 RMK A01 T01100046  RH  066%=      5-min Rain = 0
KHA1 131705Z 36002KT 11/05 A2992 RMK A01 T01130047  RH  065%=      5-min Rain = 0
KHA1 131710Z 34003KT 11/05 A2991 RMK A01 T01140046  RH  064%=      5-min Rain = 0
KHA1 131715Z 34000KT 12/05 A2991 RMK A01 T01180049  RH  064%=      5-min Rain = 0
KHA1 131720Z 36001KT 13/05 A2991 RMK A01 T01250048  RH  061%=      5-min Rain = 0
KHA1 131725Z 02000KT 12/05 A299 RMK A01 T01230048  RH  061%=      5-min Rain = 0
KHA1 131730Z 04001KT 13/05 A2989 RMK A01 T01270050  RH  061%=      5-min Rain = 0
KHA1 131735Z 02001KT 13/05 A299 RMK A01 T01280048  RH  059%=      5-min Rain = 0
KHA1 131740Z 04001KT 13/05 A299 RMK A01 T01300049  RH  059%=      5-min Rain = 0
KHA1 131745Z 31000KT 14/05 A299 RMK A01 T01370049  RH  056%=      5-min Rain = 0
KHA1 131750Z 06000KT 14/05 A2989 RMK A01 T01400049  RH  056%=      5-min Rain = 0
KHA1 131755Z 34000KT 14/05 A2989 RMK A01 T01420047  RH  054%=      5-min Rain = 0
KHA1 131800Z 22000KT 14/05 A2989 RMK A01 T01440051  RH  054%=      5-min Rain = 0
KHA1 131805Z 24001KT 15/05 A2989 RMK A01 T01460050  RH  054%=      5-min Rain = 0
KHA1 131810Z 24003KT 15/05 A2989 RMK A01 T01460049  RH  053%=      5-min Rain = 0
KHA1 131815Z 25003KT 14/05 A2988 RMK A01 T01420046  RH  054%=      5-min Rain = 0
KHA1 131820Z 20001KT 15/05 A2987 RMK A01 T01460049  RH  053%=      5-min Rain = 0
KHA1 131825Z 22001KT 15/05 A2986 RMK A01 T01470049  RH  053%=      5-min Rain = 0
KHA1 131830Z 19002KT 15/05 A2987 RMK A01 T01480048  RH  052%=      5-min Rain = 0
KHA1 131835Z 20003KT 15/05 A2986 RMK A01 T01490049  RH  052%=      5-min Rain = 0
KHA1 131840Z 23003KT 15/05 A2985 RMK A01 T01480049  RH  053%=      5-min Rain = 0
KHA1 131845Z 23003KT 15/05 A2986 RMK A01 T01510050  RH  052%=      5-min Rain = 0
KHA1 131850Z 19002KT 15/05 A2986 RMK A01 T01520049  RH  051%=      5-min Rain = 0
KHA1 131855Z 24002KT 16/05 A2986 RMK A01 T01560052  RH  051%=      5-min Rain = 0
KHA1 131900Z 20005G10KT 16/06 A2986 RMK A01 T01570055  RH  052%=      5-min Rain = 0
KHA1 131905Z 21007KT 16/06 A2985 RMK A01 T01560055  RH  052%=      5-min Rain = 0
KHA1 131910Z 22006KT 16/05 A2984 RMK A01 T01580052  RH  050%=      5-min Rain = 0
KHA1 131915Z 23007KT 16/05 A2984 RMK A01 T01640046  RH  047%=      5-min Rain = 0
KHA1 131920Z 25006KT 16/04 A2984 RMK A01 T01620044  RH  046%=      5-min Rain = 0
KHA1 131925Z 26006KT 16/04 A2984 RMK A01 T01620042  RH  046%=      5-min Rain = 0
KHA1 131930Z 25008KT 16/04 A2983 RMK A01 T01640042  RH  045%=      5-min Rain = 0
KHA1 131935Z 24007KT 17/04 A2983 RMK A01 T01690040  RH  043%=      5-min Rain = 0
KHA1 131940Z 25007KT 17/04 A2984 RMK A01 T01690039  RH  043%=      5-min Rain = 0
KHA1 131945Z 22005KT 17/04 A2984 RMK A01 T01710040  RH  043%=      5-min Rain = 0
KHA1 131950Z 24005KT 17/04 A2983 RMK A01 T01710038  RH  042%=      5-min Rain = 0
KHA1 131955Z 23005KT 17/04 A2984 RMK A01 T01730039  RH  042%=      5-min Rain = 0
KHA1 132000Z 23005KT 17/04 A2984 RMK A01 T01740039  RH  041%=      5-min Rain = 0
KHA1 132005Z 23006KT 18/04 A2984 RMK A01 T01770040  RH  041%=      5-min Rain = 0
KHA1 132010Z 23006KT 18/04 A2983 RMK A01 T01780039  RH  040%=      5-min Rain = 0
KHA1 132015Z 25005KT 18/04 A2983 RMK A01 T01820037  RH  039%=      5-min Rain = 0
KHA1 132020Z 23005KT 18/04 A2983 RMK A01 T01810035  RH  039%=      5-min Rain = 0
KHA1 132025Z 20005KT 18/04 A2982 RMK A01 T01800037  RH  039%=      5-min Rain = 0
KHA1 132030Z 24003KT 18/04 A2983 RMK A01 T01840037  RH  038%=      5-min Rain = 0
KHA1 132035Z 25006KT 19/03 A2982 RMK A01 T01870032  RH  036%=      5-min Rain = 0
KHA1 132040Z 26005KT 19/03 A2982 RMK A01 T01850030  RH  036%=      5-min Rain = 0
KHA1 132045Z 27005KT 19/03 A2982 RMK A01 T01860029  RH  036%=      5-min Rain = 0
KHA1 132050Z 28004KT 19/02 A2982 RMK A01 T01860024  RH  035%=      5-min Rain = 0
KHA1 132055Z 23005KT 19/02 A2982 RMK A01 T01880023  RH  034%=      5-min Rain = 0
KHA1 132100Z 27004KT 19/02 A2982 RMK A01 T01890018  RH  032%=      5-min Rain = 0
KHA1 132105Z 26004KT 19/01 A2981 RMK A01 T01900014  RH  031%=      5-min Rain = 0
KHA1 132110Z 30001KT 19/01 A2981 RMK A01 T01920014  RH  031%=      5-min Rain = 0
KHA1 132115Z 28001KT 20/01 A298 RMK A01 T01950013  RH  030%=      5-min Rain = 0
KHA1 132120Z 21001KT 20/01 A2981 RMK A01 T01950012  RH  030%=      5-min Rain = 0
KHA1 132125Z 23002KT 19/01 A2981 RMK A01 T01930012  RH  030%=      5-min Rain = 0
KHA1 132130Z 17001KT 20/01 A2982 RMK A01 T01960012  RH  030%=      5-min Rain = 0
KHA1 132135Z 19003KT 20/01 A2982 RMK A01 T01960013  RH  030%=      5-min Rain = 0
KHA1 132140Z 18002KT 19/01 A2981 RMK A01 T01930010  RH  030%=      5-min Rain = 0
KHA1 132145Z 18002KT 19/01 A2981 RMK A01 T01940008  RH  029%=      5-min Rain = 0
KHA1 132150Z 17002KT 19/01 A2981 RMK A01 T01930008  RH  029%=      5-min Rain = 0
KHA1 132155Z 18002KT 19/01 A2982 RMK A01 T01930008  RH  029%=      5-min Rain = 0
KHA1 132200Z 20003KT 20/01 A2981 RMK A01 T01960010  RH  029%=      5-min Rain = 0
KHA1 132205Z 18003KT 20/01 A2981 RMK A01 T01950009  RH  029%=      5-min Rain = 0
KHA1 132210Z 18002KT 19/01 A2981 RMK A01 T01940010  RH  029%=      5-min Rain = 0
KHA1 132215Z 17002KT 20/01 A2981 RMK A01 T01950006  RH  029%=      5-min Rain = 0
KHA1 132220Z 16000KT 20/01 A2981 RMK A01 T01980005  RH  028%=      5-min Rain = 0
KHA1 132225Z 16001KT 20/01 A2981 RMK A01 T01980006  RH  028%=      5-min Rain = 0
KHA1 132230Z 19002KT 19/01 A2982 RMK A01 T01900005  RH  029%=      5-min Rain = 0
KHA1 132235Z 19002KT 19/01 A2982 RMK A01 T01860007  RH  030%=      5-min Rain = 0
KHA1 132240Z 18000KT 19/01 A2982 RMK A01 T01850009  RH  031%=      5-min Rain = 0
KHA1 132245Z 13001KT 19/01 A2981 RMK A01 T01850005  RH  030%=      5-min Rain = 0
KHA1 132250Z 10004KT 19/02 A2981 RMK A01 T01860022  RH  034%=      5-min Rain = 0
KHA1 132255Z 12004KT 18/04 A2981 RMK A01 T01780040  RH  041%=      5-min Rain = 0
KHA1 132300Z 13004KT 17/04 A2982 RMK A01 T01700042  RH  044%=      5-min Rain = 0
KHA1 132305Z 11004KT 17/04 A2982 RMK A01 T01690043  RH  044%=      5-min Rain = 0
KHA1 132310Z 11005KT 17/05 A2982 RMK A01 T01670045  RH  045%=      5-min Rain = 0
KHA1 132315Z 11004KT 16/04 A2982 RMK A01 T01640044  RH  046%=      5-min Rain = 0
KHA1 132320Z 12004KT 16/04 A2982 RMK A01 T01600044  RH  047%=      5-min Rain = 0
KHA1 132325Z 12004KT 16/04 A2982 RMK A01 T01560043  RH  048%=      5-min Rain = 0
KHA1 132330Z 11003KT 15/04 A2982 RMK A01 T01540042  RH  048%=      5-min Rain = 0
KHA1 132335Z 12003KT 15/04 A2982 RMK A01 T01520042  RH  049%=      5-min Rain = 0
KHA1 132340Z 12003KT 15/04 A2983 RMK A01 T01490041  RH  049%=      5-min Rain = 0
KHA1 132345Z 11003KT 15/04 A2983 RMK A01 T01470040  RH  050%=      5-min Rain = 0
KHA1 132350Z 13003KT 14/04 A2983 RMK A01 T01440040  RH  051%=      5-min Rain = 0
KHA1 132355Z 13003KT 14/04 A2983 RMK A01 T01400039  RH  052%=      5-min Rain = 0
KHA1 140000Z 14002KT 14/04 A2984 RMK A01 T01390037  RH  051%=      5-min Rain = 0
KHA1 140005Z 14004KT 13/04 A2983 RMK A01 T01330037  RH  053%=      5-min Rain = 0
KHA1 140010Z 13004KT 14/04 A2983 RMK A01 T01350037  RH  052%=      5-min Rain = 0
KHA1 140015Z 13004KT 13/04 A2983 RMK A01 T01330037  RH  053%=      5-min Rain = 0
KHA1 140020Z 12005KT 13/04 A2983 RMK A01 T01300038  RH  055%=      5-min Rain = 0
KHA1 140025Z 13006KT 14/04 A2983 RMK A01 T01350037  RH  053%=      5-min Rain = 0
KHA1 140030Z 14005KT 14/04 A2983 RMK A01 T01440036  RH  049%=      5-min Rain = 0
KHA1 140035Z 13004KT 14/04 A2983 RMK A01 T01420035  RH  049%=      5-min Rain = 0
KHA1 140040Z 10004KT 13/04 A2983 RMK A01 T01330035  RH  052%=      5-min Rain = 0
KHA1 140045Z 11005KT 13/04 A2983 RMK A01 T01280036  RH  055%=      5-min Rain = 0
KHA1 140050Z 12005KT 13/04 A2983 RMK A01 T01280035  RH  054%=      5-min Rain = 0
KHA1 140055Z 13005KT 13/04 A2984 RMK A01 T01320035  RH  053%=      5-min Rain = 0
KHA1 140100Z 14004KT 13/03 A2984 RMK A01 T01330034  RH  052%=      5-min Rain = 0
KHA1 140105Z 14005KT 14/03 A2984 RMK A01 T01360033  RH  051%=      5-min Rain = 0
KHA1 140110Z 14005KT 14/03 A2984 RMK A01 T01400032  RH  049%=      5-min Rain = 0
KHA1 140115Z 15005KT 14/03 A2985 RMK A01 T01410031  RH  049%=      5-min Rain = 0
KHA1 140120Z 15005KT 14/03 A2985 RMK A01 T01390030  RH  049%=      5-min Rain = 0
KHA1 140125Z 13004KT 13/03 A2985 RMK A01 T01300030  RH  052%=      5-min Rain = 0
KHA1 140130Z 11003KT 12/03 A2985 RMK A01 T01220031  RH  055%=      5-min Rain = 0
KHA1 140135Z 11004KT 12/03 A2985 RMK A01 T01210031  RH  055%=      5-min Rain = 0
KHA1 140140Z 11005KT 12/03 A2985 RMK A01 T01200030  RH  055%=      5-min Rain = 0
KHA1 140145Z 12005KT 12/03 A2984 RMK A01 T01170030  RH  056%=      5-min Rain = 0
KHA1 140150Z 09006KT 12/03 A2985 RMK A01 T01180030  RH  056%=      5-min Rain = 0
KHA1 140155Z 08005KT 11/03 A2985 RMK A01 T01110032  RH  059%=      5-min Rain = 0
KHA1 140200Z 09004KT 11/03 A2985 RMK A01 T01060033  RH  062%=      5-min Rain = 0
KHA1 140205Z 09004KT 11/03 A2985 RMK A01 T01080033  RH  061%=      5-min Rain = 0
KHA1 140210Z 09004KT 11/03 A2985 RMK A01 T01070033  RH  061%=      5-min Rain = 0
KHA1 140215Z 08005KT 11/03 A2986 RMK A01 T01060033  RH  062%=      5-min Rain = 0
KHA1 140220Z 08005KT 10/03 A2986 RMK A01 T01040034  RH  063%=      5-min Rain = 0
KHA1 140225Z 08005KT 10/03 A2986 RMK A01 T01010034  RH  064%=      5-min Rain = 0
KHA1 140230Z 09005KT 10/03 A2986 RMK A01 T01000034  RH  065%=      5-min Rain = 0
KHA1 140235Z 09006KT 10/04 A2986 RMK A01 T01030035  RH  064%=      5-min Rain = 0
KHA1 140240Z 09005KT 11/03 A2986 RMK A01 T01060034  RH  062%=      5-min Rain = 0
KHA1 140245Z 09004KT 11/03 A2986 RMK A01 T01060034  RH  062%=      5-min Rain = 0
KHA1 140250Z 09005KT 11/03 A2987 RMK A01 T01060034  RH  062%=      5-min Rain = 0
KHA1 140255Z 10005KT 10/03 A2987 RMK A01 T01040034  RH  063%=      5-min Rain = 0
KHA1 140300Z 11005KT 11/03 A2986 RMK A01 T01050034  RH  062%=      5-min Rain = 0
KHA1 140305Z 11005KT 11/03 A2987 RMK A01 T01060034  RH  062%=      5-min Rain = 0
KHA1 140310Z 12005KT 10/04 A2987 RMK A01 T01040035  RH  063%=      5-min Rain = 0
KHA1 140315Z 13005KT 11/03 A2987 RMK A01 T01050034  RH  063%=      5-min Rain = 0
KHA1 140320Z 13005KT 11/03 A2987 RMK A01 T01060034  RH  062%=      5-min Rain = 0
KHA1 140325Z 13006KT 11/04 A2987 RMK A01 T01120035  RH  060%=      5-min Rain = 0
KHA1 140330Z 13006KT 11/03 A2986 RMK A01 T01110034  RH  060%=      5-min Rain = 0
KHA1 140335Z 13005KT 11/03 A2986 RMK A01 T01090034  RH  061%=      5-min Rain = 0
KHA1 140340Z 14006KT 11/03 A2986 RMK A01 T01120034  RH  060%=      5-min Rain = 0
KHA1 140345Z 15006KT 11/03 A2986 RMK A01 T01140034  RH  059%=      5-min Rain = 0
KHA1 140350Z 15006KT 11/03 A2986 RMK A01 T01130033  RH  059%=      5-min Rain = 0
KHA1 140355Z 16006KT 11/03 A2986 RMK A01 T01120033  RH  059%=      5-min Rain = 0
KHA1 140400Z 16006KT 11/03 A2986 RMK A01 T01120032  RH  059%=      5-min Rain = 0
KHA1 140405Z 15005KT 11/03 A2986 RMK A01 T01120031  RH  059%=      5-min Rain = 0
KHA1 140410Z 15005KT 11/03 A2985 RMK A01 T01100031  RH  059%=      5-min Rain = 0
KHA1 140415Z 15006KT 11/03 A2985 RMK A01 T01100031  RH  059%=      5-min Rain = 0
KHA1 140420Z 15006KT 11/03 A2985 RMK A01 T01120031  RH  058%=      5-min Rain = 0
KHA1 140425Z 13005KT 11/03 A2986 RMK A01 T01130030  RH  058%=      5-min Rain = 0
KHA1 140430Z 13005KT 11/03 A2986 RMK A01 T01090030  RH  059%=      5-min Rain = 0
KHA1 140435Z 12003KT 11/03 A2987 RMK A01 T01070029  RH  060%=      5-min Rain = 0
KHA1 140440Z 12000KT 09/03 A2988 RMK A01 T00910025  RH  064%=      5-min Rain = 0
KHA1 140445Z 10002KT 09/03 A2988 RMK A01 T00920029  RH  066%=      5-min Rain = 0
KHA1 140450Z 10003KT 09/03 A2987 RMK A01 T00930028  RH  065%=      5-min Rain = 0
KHA1 140455Z 13003KT 09/03 A2988 RMK A01 T00850026  RH  067%=      5-min Rain = 0
KHA1 140500Z 14004KT 08/02 A2987 RMK A01 T00760023  RH  071%=      5-min Rain = 0
KHA1 140505Z 13004KT 08/03 A2987 RMK A01 T00750025  RH  072%=      5-min Rain = 0
KHA1 140510Z 12003KT 08/03 A2987 RMK A01 T00810027  RH  070%=      5-min Rain = 0
KHA1 140515Z 11003KT 09/03 A2987 RMK A01 T00900029  RH  067%=      5-min Rain = 0
KHA1 140520Z 11003KT 09/03 A2988 RMK A01 T00920029  RH  066%=      5-min Rain = 0
KHA1 140525Z 10003KT 09/03 A2988 RMK A01 T00940030  RH  065%=      5-min Rain = 0
KHA1 140530Z 13003KT 09/03 A2988 RMK A01 T00880025  RH  066%=      5-min Rain = 0
KHA1 140535Z 14003KT 07/02 A2988 RMK A01 T00690021  RH  072%=      5-min Rain = 0
KHA1 140540Z 12004KT 08/03 A2987 RMK A01 T00780029  RH  073%=      5-min Rain = 0
KHA1 140545Z 12004KT 09/03 A2987 RMK A01 T00870030  RH  069%=      5-min Rain = 0
KHA1 140550Z 12005KT 09/03 A2987 RMK A01 T00910031  RH  067%=      5-min Rain = 0
KHA1 140555Z 12005KT 10/03 A2986 RMK A01 T00960031  RH  065%=      5-min Rain = 0

Page generated in 0.0148 seconds.